sensor_id;sensor_type;location;lat;lon;timestamp;temperature;humidity
10270;DHT22;5180;50.832;5.390;2022-07-01T00:00:56;13.50;99.90
10270;DHT22;5180;50.832;5.390;2022-07-01T00:03:21;13.50;99.90
10270;DHT22;5180;50.832;5.390;2022-07-01T00:05:48;13.50;99.90
10270;DHT22;5180;50.832;5.390;2022-07-01T00:08:13;13.50;99.90
10270;DHT22;5180;50.832;5.390;2022-07-01T00:10:39;13.50;99.90
10270;DHT22;5180;50.832;5.390;2022-07-01T00:13:05;13.50;99.90
10270;DHT22;5180;50.832;5.390;2022-07-01T00:15:32;13.50;99.90
10270;DHT22;5180;50.832;5.390;2022-07-01T00:17:57;13.50;99.90
10270;DHT22;5180;50.832;5.390;2022-07-01T00:20:23;13.40;99.90
10270;DHT22;5180;50.832;5.390;2022-07-01T00:22:49;13.50;99.90
10270;DHT22;5180;50.832;5.390;2022-07-01T00:25:14;13.40;99.90
10270;DHT22;5180;50.832;5.390;2022-07-01T00:27:41;13.40;99.90
10270;DHT22;5180;50.832;5.390;2022-07-01T00:30:09;13.30;99.90
10270;DHT22;5180;50.832;5.390;2022-07-01T00:32:36;13.30;99.90
10270;DHT22;5180;50.832;5.390;2022-07-01T00:35:02;13.30;99.90
10270;DHT22;5180;50.832;5.390;2022-07-01T00:37:28;13.20;99.90
10270;DHT22;5180;50.832;5.390;2022-07-01T00:39:54;13.20;99.90
10270;DHT22;5180;50.832;5.390;2022-07-01T00:42:19;13.20;99.90
10270;DHT22;5180;50.832;5.390;2022-07-01T00:44:45;13.10;99.90
10270;DHT22;5180;50.832;5.390;2022-07-01T00:47:13;13.10;99.90
10270;DHT22;5180;50.832;5.390;2022-07-01T00:49:39;13.10;99.90
10270;DHT22;5180;50.832;5.390;2022-07-01T00:52:06;13.00;99.90
10270;DHT22;5180;50.832;5.390;2022-07-01T00:54:35;13.00;99.90
10270;DHT22;5180;50.832;5.390;2022-07-01T00:57:06;13.00;99.90
10270;DHT22;5180;50.832;5.390;2022-07-01T00:59:32;13.00;99.90
10270;DHT22;5180;50.832;5.390;2022-07-01T01:02:00;13.00;99.90
10270;DHT22;5180;50.832;5.390;2022-07-01T01:04:26;13.00;99.90
10270;DHT22;5180;50.832;5.390;2022-07-01T01:06:51;12.90;99.90
10270;DHT22;5180;50.832;5.390;2022-07-01T01:09:17;13.00;99.90
10270;DHT22;5180;50.832;5.390;2022-07-01T01:11:43;13.00;99.90
10270;DHT22;5180;50.832;5.390;2022-07-01T01:14:08;13.00;99.90
10270;DHT22;5180;50.832;5.390;2022-07-01T01:16:34;13.00;99.90
10270;DHT22;5180;50.832;5.390;2022-07-01T01:19:06;13.00;99.90
10270;DHT22;5180;50.832;5.390;2022-07-01T01:21:33;13.00;99.90
10270;DHT22;5180;50.832;5.390;2022-07-01T01:23:59;13.00;99.90
10270;DHT22;5180;50.832;5.390;2022-07-01T01:26:25;13.00;99.90
10270;DHT22;5180;50.832;5.390;2022-07-01T01:28:51;13.00;99.90
10270;DHT22;5180;50.832;5.390;2022-07-01T01:31:26;13.00;99.90
10270;DHT22;5180;50.832;5.390;2022-07-01T01:33:54;13.10;99.90
10270;DHT22;5180;50.832;5.390;2022-07-01T01:36:19;13.10;99.90
10270;DHT22;5180;50.832;5.390;2022-07-01T01:38:45;13.20;99.90
10270;DHT22;5180;50.832;5.390;2022-07-01T01:41:11;13.30;99.90
10270;DHT22;5180;50.832;5.390;2022-07-01T01:43:37;13.30;99.90
10270;DHT22;5180;50.832;5.390;2022-07-01T01:46:03;13.40;99.90
10270;DHT22;5180;50.832;5.390;2022-07-01T01:48:30;13.50;99.90
10270;DHT22;5180;50.832;5.390;2022-07-01T01:50:56;13.50;99.90
10270;DHT22;5180;50.832;5.390;2022-07-01T01:53:22;13.50;99.90
10270;DHT22;5180;50.832;5.390;2022-07-01T01:55:48;13.50;99.90
10270;DHT22;5180;50.832;5.390;2022-07-01T01:58:14;13.50;99.90
10270;DHT22;5180;50.832;5.390;2022-07-01T02:00:39;13.50;99.90
10270;DHT22;5180;50.832;5.390;2022-07-01T02:03:05;13.60;99.90
10270;DHT22;5180;50.832;5.390;2022-07-01T02:05:31;13.60;99.90
10270;DHT22;5180;50.832;5.390;2022-07-01T02:07:57;13.60;99.90
10270;DHT22;5180;50.832;5.390;2022-07-01T02:10:22;13.60;99.90
10270;DHT22;5180;50.832;5.390;2022-07-01T02:12:48;13.70;99.90
10270;DHT22;5180;50.832;5.390;2022-07-01T02:15:13;13.70;99.90
10270;DHT22;5180;50.832;5.390;2022-07-01T02:17:39;13.70;99.90
10270;DHT22;5180;50.832;5.390;2022-07-01T02:20:05;13.80;99.90
10270;DHT22;5180;50.832;5.390;2022-07-01T02:22:31;13.70;99.90
10270;DHT22;5180;50.832;5.390;2022-07-01T02:24:56;13.80;99.90
10270;DHT22;5180;50.832;5.390;2022-07-01T02:27:22;13.80;99.90
10270;DHT22;5180;50.832;5.390;2022-07-01T02:29:48;13.80;99.90
10270;DHT22;5180;50.832;5.390;2022-07-01T02:32:13;13.80;99.90
10270;DHT22;5180;50.832;5.390;2022-07-01T02:34:39;13.90;99.90
10270;DHT22;5180;50.832;5.390;2022-07-01T02:37:04;13.90;99.90
10270;DHT22;5180;50.832;5.390;2022-07-01T02:39:34;13.90;99.90
10270;DHT22;5180;50.832;5.390;2022-07-01T02:41:59;13.80;99.90
10270;DHT22;5180;50.832;5.390;2022-07-01T02:44:43;13.80;99.90
10270;DHT22;5180;50.832;5.390;2022-07-01T02:47:09;13.80;99.90
10270;DHT22;5180;50.832;5.390;2022-07-01T02:49:35;13.70;99.90
10270;DHT22;5180;50.832;5.390;2022-07-01T02:52:00;13.70;99.90
10270;DHT22;5180;50.832;5.390;2022-07-01T02:54:26;13.70;99.90
10270;DHT22;5180;50.832;5.390;2022-07-01T02:56:52;13.60;99.90
10270;DHT22;5180;50.832;5.390;2022-07-01T02:59:17;13.60;99.90
10270;DHT22;5180;50.832;5.390;2022-07-01T03:01:43;13.60;99.90
10270;DHT22;5180;50.832;5.390;2022-07-01T03:04:08;13.60;99.90
10270;DHT22;5180;50.832;5.390;2022-07-01T03:06:34;13.60;99.90
10270;DHT22;5180;50.832;5.390;2022-07-01T03:08:59;13.50;99.90
10270;DHT22;5180;50.832;5.390;2022-07-01T03:11:25;13.50;99.90
10270;DHT22;5180;50.832;5.390;2022-07-01T03:13:51;13.50;99.90
10270;DHT22;5180;50.832;5.390;2022-07-01T03:16:16;13.40;99.90
10270;DHT22;5180;50.832;5.390;2022-07-01T03:18:42;13.40;99.90
10270;DHT22;5180;50.832;5.390;2022-07-01T03:21:07;13.40;99.90
10270;DHT22;5180;50.832;5.390;2022-07-01T03:23:33;13.40;99.90
10270;DHT22;5180;50.832;5.390;2022-07-01T03:25:59;13.40;99.90
10270;DHT22;5180;50.832;5.390;2022-07-01T03:28:24;13.50;99.90
10270;DHT22;5180;50.832;5.390;2022-07-01T03:30:50;13.50;99.90
10270;DHT22;5180;50.832;5.390;2022-07-01T03:33:15;13.40;99.90
10270;DHT22;5180;50.832;5.390;2022-07-01T03:35:41;13.50;99.90
10270;DHT22;5180;50.832;5.390;2022-07-01T03:38:11;13.50;99.90
10270;DHT22;5180;50.832;5.390;2022-07-01T03:40:38;13.50;99.90
10270;DHT22;5180;50.832;5.390;2022-07-01T03:43:04;13.50;99.90
10270;DHT22;5180;50.832;5.390;2022-07-01T03:45:31;13.50;99.90
10270;DHT22;5180;50.832;5.390;2022-07-01T03:47:57;13.60;99.90
10270;DHT22;5180;50.832;5.390;2022-07-01T03:50:24;13.60;99.90
10270;DHT22;5180;50.832;5.390;2022-07-01T03:52:50;13.70;99.90
10270;DHT22;5180;50.832;5.390;2022-07-01T03:55:36;13.70;99.90
10270;DHT22;5180;50.832;5.390;2022-07-01T03:58:02;13.80;99.90
10270;DHT22;5180;50.832;5.390;2022-07-01T04:00:28;13.70;99.90
10270;DHT22;5180;50.832;5.390;2022-07-01T04:02:54;13.80;99.90
10270;DHT22;5180;50.832;5.390;2022-07-01T04:05:20;13.80;99.90
10270;DHT22;5180;50.832;5.390;2022-07-01T04:07:45;13.90;99.90
10270;DHT22;5180;50.832;5.390;2022-07-01T04:10:12;13.90;99.90
10270;DHT22;5180;50.832;5.390;2022-07-01T04:12:38;14.00;99.90
10270;DHT22;5180;50.832;5.390;2022-07-01T04:15:04;14.10;99.90
10270;DHT22;5180;50.832;5.390;2022-07-01T04:17:30;14.10;99.90
10270;DHT22;5180;50.832;5.390;2022-07-01T04:19:56;14.10;99.90
10270;DHT22;5180;50.832;5.390;2022-07-01T04:22:21;14.10;99.90
10270;DHT22;5180;50.832;5.390;2022-07-01T04:25:02;14.20;99.90
10270;DHT22;5180;50.832;5.390;2022-07-01T04:27:29;14.20;99.90
10270;DHT22;5180;50.832;5.390;2022-07-01T04:29:55;14.20;99.90
10270;DHT22;5180;50.832;5.390;2022-07-01T04:32:21;14.30;99.90
10270;DHT22;5180;50.832;5.390;2022-07-01T04:34:46;14.30;99.90
10270;DHT22;5180;50.832;5.390;2022-07-01T04:37:12;14.30;99.90
10270;DHT22;5180;50.832;5.390;2022-07-01T04:39:38;14.40;99.90
10270;DHT22;5180;50.832;5.390;2022-07-01T04:42:04;14.40;99.90
10270;DHT22;5180;50.832;5.390;2022-07-01T04:44:35;14.50;99.90
10270;DHT22;5180;50.832;5.390;2022-07-01T04:47:02;14.50;99.90
10270;DHT22;5180;50.832;5.390;2022-07-01T04:49:28;14.50;99.90
10270;DHT22;5180;50.832;5.390;2022-07-01T04:51:55;14.50;99.90
10270;DHT22;5180;50.832;5.390;2022-07-01T04:54:21;14.60;99.90
10270;DHT22;5180;50.832;5.390;2022-07-01T04:56:47;14.60;99.90
10270;DHT22;5180;50.832;5.390;2022-07-01T04:59:13;14.60;99.90
10270;DHT22;5180;50.832;5.390;2022-07-01T05:01:41;14.60;99.90
10270;DHT22;5180;50.832;5.390;2022-07-01T05:04:06;14.60;99.90
10270;DHT22;5180;50.832;5.390;2022-07-01T05:06:32;14.70;99.90
10270;DHT22;5180;50.832;5.390;2022-07-01T05:08:59;14.70;99.90
10270;DHT22;5180;50.832;5.390;2022-07-01T05:11:25;14.80;99.90
10270;DHT22;5180;50.832;5.390;2022-07-01T05:13:51;14.80;99.90
10270;DHT22;5180;50.832;5.390;2022-07-01T05:16:16;14.90;99.90
10270;DHT22;5180;50.832;5.390;2022-07-01T05:18:42;14.90;99.90
10270;DHT22;5180;50.832;5.390;2022-07-01T05:21:26;15.00;99.90
10270;DHT22;5180;50.832;5.390;2022-07-01T05:24:10;15.00;99.90
10270;DHT22;5180;50.832;5.390;2022-07-01T05:26:36;15.00;99.90
10270;DHT22;5180;50.832;5.390;2022-07-01T05:29:03;15.20;99.90
10270;DHT22;5180;50.832;5.390;2022-07-01T05:31:29;15.20;99.90
10270;DHT22;5180;50.832;5.390;2022-07-01T05:33:55;15.10;99.90
10270;DHT22;5180;50.832;5.390;2022-07-01T05:36:20;15.00;99.90
10270;DHT22;5180;50.832;5.390;2022-07-01T05:38:46;15.10;99.90
10270;DHT22;5180;50.832;5.390;2022-07-01T05:41:12;15.50;99.90
10270;DHT22;5180;50.832;5.390;2022-07-01T05:43:38;16.40;99.90
10270;DHT22;5180;50.832;5.390;2022-07-01T05:46:04;18.00;99.90
10270;DHT22;5180;50.832;5.390;2022-07-01T05:48:30;19.90;99.90
10270;DHT22;5180;50.832;5.390;2022-07-01T05:50:56;21.30;99.90
10270;DHT22;5180;50.832;5.390;2022-07-01T05:53:22;21.60;99.90
10270;DHT22;5180;50.832;5.390;2022-07-01T05:55:48;21.00;99.90
10270;DHT22;5180;50.832;5.390;2022-07-01T05:58:14;20.50;99.90
10270;DHT22;5180;50.832;5.390;2022-07-01T06:00:40;20.30;99.90
10270;DHT22;5180;50.832;5.390;2022-07-01T06:03:08;19.70;99.90
10270;DHT22;5180;50.832;5.390;2022-07-01T06:05:34;19.10;99.90
10270;DHT22;5180;50.832;5.390;2022-07-01T06:07:59;18.70;99.90
10270;DHT22;5180;50.832;5.390;2022-07-01T06:10:26;19.80;99.90
10270;DHT22;5180;50.832;5.390;2022-07-01T06:12:51;21.00;99.90
10270;DHT22;5180;50.832;5.390;2022-07-01T06:15:17;22.50;99.90
10270;DHT22;5180;50.832;5.390;2022-07-01T06:17:43;23.30;99.90
10270;DHT22;5180;50.832;5.390;2022-07-01T06:20:09;24.00;99.90
10270;DHT22;5180;50.832;5.390;2022-07-01T06:22:35;23.10;99.90
10270;DHT22;5180;50.832;5.390;2022-07-01T06:25:02;22.30;99.90
10270;DHT22;5180;50.832;5.390;2022-07-01T06:27:28;21.90;99.90
10270;DHT22;5180;50.832;5.390;2022-07-01T06:29:54;22.30;99.90
10270;DHT22;5180;50.832;5.390;2022-07-01T06:32:19;22.60;99.90
10270;DHT22;5180;50.832;5.390;2022-07-01T06:34:45;22.40;99.90
10270;DHT22;5180;50.832;5.390;2022-07-01T06:37:11;21.70;99.90
10270;DHT22;5180;50.832;5.390;2022-07-01T06:39:37;21.10;99.90
10270;DHT22;5180;50.832;5.390;2022-07-01T06:42:02;20.90;99.90
10270;DHT22;5180;50.832;5.390;2022-07-01T06:44:28;21.00;99.90
10270;DHT22;5180;50.832;5.390;2022-07-01T06:46:54;21.30;99.90
10270;DHT22;5180;50.832;5.390;2022-07-01T06:49:19;21.20;99.90
10270;DHT22;5180;50.832;5.390;2022-07-01T06:51:45;20.80;99.90
10270;DHT22;5180;50.832;5.390;2022-07-01T06:54:11;20.60;99.90
10270;DHT22;5180;50.832;5.390;2022-07-01T06:56:36;21.00;99.90
10270;DHT22;5180;50.832;5.390;2022-07-01T06:59:02;21.40;99.90
10270;DHT22;5180;50.832;5.390;2022-07-01T07:01:28;22.40;99.90
10270;DHT22;5180;50.832;5.390;2022-07-01T07:03:54;23.60;99.90
10270;DHT22;5180;50.832;5.390;2022-07-01T07:06:21;24.70;99.90
10270;DHT22;5180;50.832;5.390;2022-07-01T07:08:47;25.20;99.90
10270;DHT22;5180;50.832;5.390;2022-07-01T07:11:12;25.10;99.90
10270;DHT22;5180;50.832;5.390;2022-07-01T07:13:41;24.40;99.90
10270;DHT22;5180;50.832;5.390;2022-07-01T07:16:07;24.00;99.90
10270;DHT22;5180;50.832;5.390;2022-07-01T07:18:33;24.20;99.90
10270;DHT22;5180;50.832;5.390;2022-07-01T07:20:58;24.10;99.90
10270;DHT22;5180;50.832;5.390;2022-07-01T07:23:24;24.20;99.80
10270;DHT22;5180;50.832;5.390;2022-07-01T07:25:49;24.10;99.60
10270;DHT22;5180;50.832;5.390;2022-07-01T07:28:15;24.10;99.20
10270;DHT22;5180;50.832;5.390;2022-07-01T07:30:41;23.90;99.00
10270;DHT22;5180;50.832;5.390;2022-07-01T07:33:06;23.90;98.60
10270;DHT22;5180;50.832;5.390;2022-07-01T07:35:32;23.30;98.80
10270;DHT22;5180;50.832;5.390;2022-07-01T07:37:58;23.60;99.10
10270;DHT22;5180;50.832;5.390;2022-07-01T07:40:23;24.40;98.50
10270;DHT22;5180;50.832;5.390;2022-07-01T07:42:49;24.50;97.90
10270;DHT22;5180;50.832;5.390;2022-07-01T07:45:15;24.80;97.30
10270;DHT22;5180;50.832;5.390;2022-07-01T07:47:46;24.70;96.90
10270;DHT22;5180;50.832;5.390;2022-07-01T07:50:13;24.50;97.00
10270;DHT22;5180;50.832;5.390;2022-07-01T07:52:39;24.40;96.80
10270;DHT22;5180;50.832;5.390;2022-07-01T07:55:07;24.80;96.80
10270;DHT22;5180;50.832;5.390;2022-07-01T07:57:33;25.10;96.30
10270;DHT22;5180;50.832;5.390;2022-07-01T08:00:00;25.50;96.00
10270;DHT22;5180;50.832;5.390;2022-07-01T08:02:26;25.30;95.70
10270;DHT22;5180;50.832;5.390;2022-07-01T08:04:51;25.40;95.60
10270;DHT22;5180;50.832;5.390;2022-07-01T08:07:17;25.90;95.40
10270;DHT22;5180;50.832;5.390;2022-07-01T08:09:43;26.30;94.80
10270;DHT22;5180;50.832;5.390;2022-07-01T08:12:12;26.90;94.40
10270;DHT22;5180;50.832;5.390;2022-07-01T08:14:38;26.70;94.20
10270;DHT22;5180;50.832;5.390;2022-07-01T08:17:04;27.10;94.10
10270;DHT22;5180;50.832;5.390;2022-07-01T08:19:30;27.60;93.40
10270;DHT22;5180;50.832;5.390;2022-07-01T08:21:56;27.90;93.00
10270;DHT22;5180;50.832;5.390;2022-07-01T08:24:22;28.20;92.30
10270;DHT22;5180;50.832;5.390;2022-07-01T08:26:47;27.80;91.60
10270;DHT22;5180;50.832;5.390;2022-07-01T08:29:13;28.00;91.40
10270;DHT22;5180;50.832;5.390;2022-07-01T08:31:39;28.20;91.00
10270;DHT22;5180;50.832;5.390;2022-07-01T08:34:05;28.20;90.90
10270;DHT22;5180;50.832;5.390;2022-07-01T08:36:30;28.00;90.50
10270;DHT22;5180;50.832;5.390;2022-07-01T08:38:56;27.80;90.10
10270;DHT22;5180;50.832;5.390;2022-07-01T08:41:21;27.40;90.10
10270;DHT22;5180;50.832;5.390;2022-07-01T08:43:47;26.80;90.10
10270;DHT22;5180;50.832;5.390;2022-07-01T08:46:13;26.50;89.60
10270;DHT22;5180;50.832;5.390;2022-07-01T08:48:45;26.20;89.70
10270;DHT22;5180;50.832;5.390;2022-07-01T08:51:11;25.80;89.70
10270;DHT22;5180;50.832;5.390;2022-07-01T08:53:37;25.30;90.10
10270;DHT22;5180;50.832;5.390;2022-07-01T08:56:03;24.40;90.10
10270;DHT22;5180;50.832;5.390;2022-07-01T08:58:51;23.60;90.50
10270;DHT22;5180;50.832;5.390;2022-07-01T09:01:19;22.90;90.90
10270;DHT22;5180;50.832;5.390;2022-07-01T09:03:50;22.50;91.40
10270;DHT22;5180;50.832;5.390;2022-07-01T09:06:23;22.40;91.60
10270;DHT22;5180;50.832;5.390;2022-07-01T09:08:51;23.00;92.10
10270;DHT22;5180;50.832;5.390;2022-07-01T09:11:24;23.70;91.50
10270;DHT22;5180;50.832;5.390;2022-07-01T09:14:10;24.10;91.20
10270;DHT22;5180;50.832;5.390;2022-07-01T09:16:46;24.10;91.40
10270;DHT22;5180;50.832;5.390;2022-07-01T09:19:14;24.60;91.70
10270;DHT22;5180;50.832;5.390;2022-07-01T09:21:40;25.40;91.10
10270;DHT22;5180;50.832;5.390;2022-07-01T09:26:58;25.50;90.60
10270;DHT22;5180;50.832;5.390;2022-07-01T09:29:33;25.70;90.10
10270;DHT22;5180;50.832;5.390;2022-07-01T09:32:04;25.80;90.20
10270;DHT22;5180;50.832;5.390;2022-07-01T09:34:47;25.80;89.30
10270;DHT22;5180;50.832;5.390;2022-07-01T09:37:15;25.10;88.90
10270;DHT22;5180;50.832;5.390;2022-07-01T09:39:56;24.40;89.70
10270;DHT22;5180;50.832;5.390;2022-07-01T09:42:24;23.70;90.20
10270;DHT22;5180;50.832;5.390;2022-07-01T09:45:04;23.40;90.30
10270;DHT22;5180;50.832;5.390;2022-07-01T09:47:39;22.80;90.40
10270;DHT22;5180;50.832;5.390;2022-07-01T09:50:07;22.30;90.60
10270;DHT22;5180;50.832;5.390;2022-07-01T09:52:33;21.90;91.00
10270;DHT22;5180;50.832;5.390;2022-07-01T09:54:59;21.70;91.30
10270;DHT22;5180;50.832;5.390;2022-07-01T09:57:25;22.30;92.00
10270;DHT22;5180;50.832;5.390;2022-07-01T09:59:51;23.30;92.00
10270;DHT22;5180;50.832;5.390;2022-07-01T10:02:21;24.10;91.80
10270;DHT22;5180;50.832;5.390;2022-07-01T10:04:53;25.10;91.10
10270;DHT22;5180;50.832;5.390;2022-07-01T10:10:32;25.70;90.30
10270;DHT22;5180;50.832;5.390;2022-07-01T10:13:02;25.70;90.10
10270;DHT22;5180;50.832;5.390;2022-07-01T10:15:30;26.10;89.80
10270;DHT22;5180;50.832;5.390;2022-07-01T10:17:56;26.60;89.60
10270;DHT22;5180;50.832;5.390;2022-07-01T10:20:29;27.10;89.10
10270;DHT22;5180;50.832;5.390;2022-07-01T10:23:06;27.60;88.70
10270;DHT22;5180;50.832;5.390;2022-07-01T10:25:42;28.00;87.50
10270;DHT22;5180;50.832;5.390;2022-07-01T10:30:58;26.40;86.30
10270;DHT22;5180;50.832;5.390;2022-07-01T10:35:52;24.80;86.80
10270;DHT22;5180;50.832;5.390;2022-07-01T10:38:18;23.90;88.30
10270;DHT22;5180;50.832;5.390;2022-07-01T10:40:45;23.40;88.40
10270;DHT22;5180;50.832;5.390;2022-07-01T10:43:15;23.30;89.10
10270;DHT22;5180;50.832;5.390;2022-07-01T10:45:45;23.60;89.20
10270;DHT22;5180;50.832;5.390;2022-07-01T10:48:24;24.20;89.00
10270;DHT22;5180;50.832;5.390;2022-07-01T10:50:51;24.80;88.50
10270;DHT22;5180;50.832;5.390;2022-07-01T10:53:18;24.90;86.90
10270;DHT22;5180;50.832;5.390;2022-07-01T10:55:48;24.60;86.80
10270;DHT22;5180;50.832;5.390;2022-07-01T10:58:15;24.20;87.20
10270;DHT22;5180;50.832;5.390;2022-07-01T11:00:48;24.10;87.20
10270;DHT22;5180;50.832;5.390;2022-07-01T11:03:20;23.90;87.20
10270;DHT22;5180;50.832;5.390;2022-07-01T11:05:48;23.80;87.50
10270;DHT22;5180;50.832;5.390;2022-07-01T11:08:14;24.20;87.80
10270;DHT22;5180;50.832;5.390;2022-07-01T11:10:41;25.00;87.90
10270;DHT22;5180;50.832;5.390;2022-07-01T11:13:07;25.40;86.30
10270;DHT22;5180;50.832;5.390;2022-07-01T11:15:33;25.10;85.20
10270;DHT22;5180;50.832;5.390;2022-07-01T11:18:00;24.60;85.40
10270;DHT22;5180;50.832;5.390;2022-07-01T11:20:29;24.30;85.50
10270;DHT22;5180;50.832;5.390;2022-07-01T11:22:55;23.90;85.50
10270;DHT22;5180;50.832;5.390;2022-07-01T11:25:21;23.50;85.80
10270;DHT22;5180;50.832;5.390;2022-07-01T11:27:49;23.10;86.10
10270;DHT22;5180;50.832;5.390;2022-07-01T11:30:16;22.80;86.30
10270;DHT22;5180;50.832;5.390;2022-07-01T11:32:47;22.50;86.90
10270;DHT22;5180;50.832;5.390;2022-07-01T11:35:25;22.20;87.40
10270;DHT22;5180;50.832;5.390;2022-07-01T11:38:17;22.20;87.70
10270;DHT22;5180;50.832;5.390;2022-07-01T11:41:05;22.30;88.00
10270;DHT22;5180;50.832;5.390;2022-07-01T11:43:39;22.60;88.30
10270;DHT22;5180;50.832;5.390;2022-07-01T11:46:06;23.00;89.10
10270;DHT22;5180;50.832;5.390;2022-07-01T11:48:34;23.50;88.30
10270;DHT22;5180;50.832;5.390;2022-07-01T11:51:01;23.80;87.60
10270;DHT22;5180;50.832;5.390;2022-07-01T11:53:28;24.10;87.80
10270;DHT22;5180;50.832;5.390;2022-07-01T11:55:53;24.40;87.40
10270;DHT22;5180;50.832;5.390;2022-07-01T11:58:19;24.50;86.70
10270;DHT22;5180;50.832;5.390;2022-07-01T12:00:45;24.60;86.40
10270;DHT22;5180;50.832;5.390;2022-07-01T12:03:10;24.90;86.50
10270;DHT22;5180;50.832;5.390;2022-07-01T12:05:36;25.30;86.00
10270;DHT22;5180;50.832;5.390;2022-07-01T12:08:04;25.50;85.30
10270;DHT22;5180;50.832;5.390;2022-07-01T12:10:30;25.30;85.20
10270;DHT22;5180;50.832;5.390;2022-07-01T12:12:56;25.30;85.10
10270;DHT22;5180;50.832;5.390;2022-07-01T12:15:22;24.90;85.20
10270;DHT22;5180;50.832;5.390;2022-07-01T12:17:48;24.70;85.50
10270;DHT22;5180;50.832;5.390;2022-07-01T12:20:14;24.50;85.30
10270;DHT22;5180;50.832;5.390;2022-07-01T12:22:40;24.30;85.40
10270;DHT22;5180;50.832;5.390;2022-07-01T12:25:12;24.10;85.90
10270;DHT22;5180;50.832;5.390;2022-07-01T12:27:39;24.00;86.50
10270;DHT22;5180;50.832;5.390;2022-07-01T12:30:10;24.20;86.60
10270;DHT22;5180;50.832;5.390;2022-07-01T12:32:38;24.50;86.40
10270;DHT22;5180;50.832;5.390;2022-07-01T12:35:06;24.70;85.50
10270;DHT22;5180;50.832;5.390;2022-07-01T12:37:55;25.10;85.90
10270;DHT22;5180;50.832;5.390;2022-07-01T12:40:23;25.60;85.30
10270;DHT22;5180;50.832;5.390;2022-07-01T12:42:49;25.80;84.50
10270;DHT22;5180;50.832;5.390;2022-07-01T12:45:23;25.60;83.60
10270;DHT22;5180;50.832;5.390;2022-07-01T12:47:53;25.40;83.30
10270;DHT22;5180;50.832;5.390;2022-07-01T12:50:27;25.50;82.30
10270;DHT22;5180;50.832;5.390;2022-07-01T12:53:03;25.70;82.80
10270;DHT22;5180;50.832;5.390;2022-07-01T12:55:35;25.80;82.10
10270;DHT22;5180;50.832;5.390;2022-07-01T12:58:03;25.70;82.30
10270;DHT22;5180;50.832;5.390;2022-07-01T13:00:30;25.70;82.30
10270;DHT22;5180;50.832;5.390;2022-07-01T13:02:58;26.00;82.40
10270;DHT22;5180;50.832;5.390;2022-07-01T13:05:23;26.60;82.10
10270;DHT22;5180;50.832;5.390;2022-07-01T13:07:49;26.90;82.10
10270;DHT22;5180;50.832;5.390;2022-07-01T13:10:16;27.30;81.10
10270;DHT22;5180;50.832;5.390;2022-07-01T13:12:43;27.40;80.80
10270;DHT22;5180;50.832;5.390;2022-07-01T13:15:13;27.20;81.00
10270;DHT22;5180;50.832;5.390;2022-07-01T13:17:39;26.60;81.30
10270;DHT22;5180;50.832;5.390;2022-07-01T13:20:06;26.70;81.70
10270;DHT22;5180;50.832;5.390;2022-07-01T13:22:32;27.10;82.00
10270;DHT22;5180;50.832;5.390;2022-07-01T13:24:58;26.80;81.20
10270;DHT22;5180;50.832;5.390;2022-07-01T13:27:24;27.00;81.60
10270;DHT22;5180;50.832;5.390;2022-07-01T13:29:50;26.90;80.40
10270;DHT22;5180;50.832;5.390;2022-07-01T13:32:15;26.30;80.30
10270;DHT22;5180;50.832;5.390;2022-07-01T13:34:41;26.40;80.40
10270;DHT22;5180;50.832;5.390;2022-07-01T13:37:07;26.20;79.30
10270;DHT22;5180;50.832;5.390;2022-07-01T13:39:33;25.90;79.50
10270;DHT22;5180;50.832;5.390;2022-07-01T13:41:58;25.80;80.20
10270;DHT22;5180;50.832;5.390;2022-07-01T13:44:24;25.80;80.20
10270;DHT22;5180;50.832;5.390;2022-07-01T13:46:50;26.00;81.20
10270;DHT22;5180;50.832;5.390;2022-07-01T13:49:15;26.50;81.40
10270;DHT22;5180;50.832;5.390;2022-07-01T13:51:42;26.90;81.40
10270;DHT22;5180;50.832;5.390;2022-07-01T13:54:07;26.70;81.00
10270;DHT22;5180;50.832;5.390;2022-07-01T13:56:33;26.50;81.10
10270;DHT22;5180;50.832;5.390;2022-07-01T13:58:59;26.70;81.40
10270;DHT22;5180;50.832;5.390;2022-07-01T14:01:25;26.30;81.00
10270;DHT22;5180;50.832;5.390;2022-07-01T14:03:51;26.20;80.00
10270;DHT22;5180;50.832;5.390;2022-07-01T14:06:18;26.40;79.80
10270;DHT22;5180;50.832;5.390;2022-07-01T14:08:44;26.50;79.10
10270;DHT22;5180;50.832;5.390;2022-07-01T14:11:09;26.80;79.60
10270;DHT22;5180;50.832;5.390;2022-07-01T14:13:35;27.10;79.30
10270;DHT22;5180;50.832;5.390;2022-07-01T14:16:01;27.40;79.00
10270;DHT22;5180;50.832;5.390;2022-07-01T14:18:27;27.50;77.90
10270;DHT22;5180;50.832;5.390;2022-07-01T14:20:53;27.60;77.70
10270;DHT22;5180;50.832;5.390;2022-07-01T14:23:19;27.80;77.40
10270;DHT22;5180;50.832;5.390;2022-07-01T14:25:44;27.60;77.10
10270;DHT22;5180;50.832;5.390;2022-07-01T14:28:11;27.50;77.70
10270;DHT22;5180;50.832;5.390;2022-07-01T14:30:37;27.20;77.30
10270;DHT22;5180;50.832;5.390;2022-07-01T14:33:03;26.90;77.30
10270;DHT22;5180;50.832;5.390;2022-07-01T14:35:29;26.80;77.00
10270;DHT22;5180;50.832;5.390;2022-07-01T14:37:55;27.10;77.50
10270;DHT22;5180;50.832;5.390;2022-07-01T14:40:21;27.40;77.40
10270;DHT22;5180;50.832;5.390;2022-07-01T14:42:47;27.60;76.40
10270;DHT22;5180;50.832;5.390;2022-07-01T14:45:13;27.30;75.90
10270;DHT22;5180;50.832;5.390;2022-07-01T14:47:40;27.00;76.60
10270;DHT22;5180;50.832;5.390;2022-07-01T14:50:06;26.70;75.70
10270;DHT22;5180;50.832;5.390;2022-07-01T14:52:32;26.50;75.90
10270;DHT22;5180;50.832;5.390;2022-07-01T14:54:58;26.60;76.00
10270;DHT22;5180;50.832;5.390;2022-07-01T14:57:23;27.00;76.50
10270;DHT22;5180;50.832;5.390;2022-07-01T14:59:49;27.20;75.90
10270;DHT22;5180;50.832;5.390;2022-07-01T15:02:15;26.80;75.20
10270;DHT22;5180;50.832;5.390;2022-07-01T15:04:41;26.00;74.00
10270;DHT22;5180;50.832;5.390;2022-07-01T15:07:07;26.00;74.90
10270;DHT22;5180;50.832;5.390;2022-07-01T15:09:32;26.40;75.80
10270;DHT22;5180;50.832;5.390;2022-07-01T15:11:58;26.90;75.00
10270;DHT22;5180;50.832;5.390;2022-07-01T15:14:23;27.30;74.50
10270;DHT22;5180;50.832;5.390;2022-07-01T15:16:49;27.00;73.20
10270;DHT22;5180;50.832;5.390;2022-07-01T15:19:15;26.60;72.40
10270;DHT22;5180;50.832;5.390;2022-07-01T15:21:41;26.30;72.20
10270;DHT22;5180;50.832;5.390;2022-07-01T15:24:06;26.30;71.90
10270;DHT22;5180;50.832;5.390;2022-07-01T15:26:32;26.50;72.60
10270;DHT22;5180;50.832;5.390;2022-07-01T15:28:57;26.70;72.60
10270;DHT22;5180;50.832;5.390;2022-07-01T15:31:23;26.80;71.80
10270;DHT22;5180;50.832;5.390;2022-07-01T15:33:51;26.90;71.40
10270;DHT22;5180;50.832;5.390;2022-07-01T15:36:16;26.90;72.00
10270;DHT22;5180;50.832;5.390;2022-07-01T15:38:42;26.90;71.00
10270;DHT22;5180;50.832;5.390;2022-07-01T15:41:09;26.60;71.00
10270;DHT22;5180;50.832;5.390;2022-07-01T15:43:35;26.80;71.30
10270;DHT22;5180;50.832;5.390;2022-07-01T15:46:01;26.90;70.90
10270;DHT22;5180;50.832;5.390;2022-07-01T15:48:27;27.40;70.90
10270;DHT22;5180;50.832;5.390;2022-07-01T15:50:53;27.80;69.90
10270;DHT22;5180;50.832;5.390;2022-07-01T15:53:19;27.70;69.40
10270;DHT22;5180;50.832;5.390;2022-07-01T15:55:48;27.80;69.40